createdAt,value
2019-05-05T00:00:09.303Z,2.50
2019-05-05T00:02:55.157Z,2.50
2019-05-05T00:05:37.031Z,2.50
2019-05-05T00:08:15.257Z,2.50
2019-05-05T00:11:05.604Z,2.40
2019-05-05T00:13:47.517Z,2.40
2019-05-05T00:16:44.517Z,2.40
2019-05-05T00:19:30.785Z,2.40
2019-05-05T00:21:58.626Z,2.30
2019-05-05T00:24:36.167Z,2.30
2019-05-05T00:27:14.952Z,2.40
2019-05-05T00:29:51.170Z,2.40
2019-05-05T00:32:28.643Z,2.40
2019-05-05T00:35:06.485Z,2.40
2019-05-05T00:37:45.039Z,2.40
2019-05-05T00:40:21.556Z,2.40
2019-05-05T00:42:59.032Z,2.40
2019-05-05T00:45:36.971Z,2.40
2019-05-05T00:48:22.146Z,2.40
2019-05-05T00:50:59.648Z,2.40
2019-05-05T00:53:37.118Z,2.40
2019-05-05T00:56:14.621Z,2.50
2019-05-05T00:58:55.671Z,2.50
2019-05-05T01:01:46.084Z,2.50
2019-05-05T01:04:27.678Z,2.40
2019-05-05T01:07:05.173Z,2.40
2019-05-05T01:09:44.977Z,2.40
2019-05-05T01:12:20.156Z,2.30
2019-05-05T01:14:57.669Z,2.30
2019-05-05T01:17:35.177Z,2.30
2019-05-05T01:20:14.635Z,2.30
2019-05-05T01:22:50.404Z,2.20
2019-05-05T01:25:27.911Z,2.20
2019-05-05T01:28:05.384Z,2.20
2019-05-05T01:30:44.506Z,2.20
2019-05-05T01:33:42.466Z,2.20
2019-05-05T01:36:19.992Z,2.20
2019-05-05T01:39:16.063Z,2.20
2019-05-05T01:41:56.791Z,2.20
2019-05-05T01:44:35.213Z,2.20
2019-05-05T01:47:11.855Z,2.10
2019-05-05T01:49:49.351Z,2.10
2019-05-05T01:52:26.932Z,2.10
2019-05-05T01:55:05.279Z,2.10
2019-05-05T01:57:41.935Z,2.10
2019-05-05T02:00:19.472Z,2.10
2019-05-05T02:02:57.013Z,2.10
2019-05-05T02:05:34.966Z,2.10
2019-05-05T02:08:12.050Z,2.10
2019-05-05T02:10:49.544Z,2.10
2019-05-05T02:13:27.034Z,2.10
2019-05-05T02:16:04.844Z,2.00
2019-05-05T02:18:42.119Z,2.10
2019-05-05T02:21:19.667Z,2.10
2019-05-05T02:23:57.166Z,2.00
2019-05-05T02:26:35.122Z,2.00
2019-05-05T02:29:40.888Z,2.00
2019-05-05T02:32:36.148Z,2.00
2019-05-05T02:35:16.249Z,2.00
2019-05-05T02:37:51.651Z,2.00
2019-05-05T02:40:29.145Z,2.00
2019-05-05T02:43:06.621Z,2.00
2019-05-05T02:46:14.908Z,2.10
2019-05-05T02:48:54.865Z,2.00
2019-05-05T02:51:29.898Z,2.00
2019-05-05T02:54:07.378Z,2.00
2019-05-05T02:56:47.038Z,2.00
2019-05-05T02:59:35.576Z,1.90
2019-05-05T03:02:15.839Z,1.90
2019-05-05T03:04:53.713Z,1.90
2019-05-05T03:07:30.956Z,1.90
2019-05-05T03:10:09.116Z,1.90
2019-05-05T03:12:46.618Z,1.90
2019-05-05T03:15:40.802Z,1.90
2019-05-05T03:18:18.302Z,1.90
2019-05-05T03:21:04.135Z,1.90
2019-05-05T03:23:33.465Z,1.90
2019-05-05T03:26:10.756Z,1.90
2019-05-05T03:28:51.744Z,1.80
2019-05-05T03:31:29.211Z,1.80
2019-05-05T03:34:06.840Z,1.80
2019-05-05T03:36:44.273Z,1.80
2019-05-05T03:39:26.420Z,1.80
2019-05-05T03:42:24.896Z,1.70
2019-05-05T03:45:05.664Z,1.70
2019-05-05T03:47:44.095Z,1.70
2019-05-05T03:50:20.633Z,1.70
2019-05-05T03:52:58.122Z,1.70
2019-05-05T03:55:35.592Z,1.70
2019-05-05T03:58:14.663Z,1.70
2019-05-05T04:01:38.523Z,1.70
2019-05-05T04:04:27.197Z,1.70
2019-05-05T04:07:04.940Z,1.70
2019-05-05T04:09:43.782Z,1.70
2019-05-05T04:12:19.924Z,1.70
2019-05-05T04:14:57.518Z,1.80
2019-05-05T04:17:53.595Z,1.80
2019-05-05T04:20:44.021Z,1.80
2019-05-05T04:23:19.571Z,1.80
2019-05-05T04:25:57.073Z,1.90
2019-05-05T04:28:34.639Z,1.90
2019-05-05T04:31:13.566Z,1.90
2019-05-05T04:33:49.620Z,1.90
2019-05-05T04:36:27.137Z,2.00
2019-05-05T04:39:04.674Z,2.00
2019-05-05T04:41:43.969Z,2.10
2019-05-05T04:44:19.666Z,2.20
2019-05-05T04:46:59.865Z,2.20
2019-05-05T04:49:51.055Z,2.30
2019-05-05T04:52:28.560Z,2.40
2019-05-05T04:55:06.322Z,2.50
2019-05-05T04:57:43.852Z,2.60
2019-05-05T05:00:21.304Z,2.60
2019-05-05T05:03:20.400Z,2.70
2019-05-05T05:06:00.568Z,2.70
2019-05-05T05:08:38.086Z,2.80
2019-05-05T05:11:15.573Z,2.80
2019-05-05T05:13:54.479Z,2.90
2019-05-05T05:16:30.626Z,2.90
2019-05-05T05:19:08.131Z,3.00
2019-05-05T05:21:58.386Z,3.00
2019-05-05T05:24:23.726Z,3.10
2019-05-05T05:27:00.637Z,3.10
2019-05-05T05:29:38.229Z,3.20
2019-05-05T05:32:15.762Z,3.30
2019-05-05T05:34:54.285Z,3.30
2019-05-05T05:37:30.778Z,3.40
2019-05-05T05:40:14.357Z,3.50
2019-05-05T05:42:49.941Z,3.60
2019-05-05T05:45:48.340Z,3.70
2019-05-05T05:48:34.220Z,3.70
2019-05-05T05:51:14.638Z,3.80
2019-05-05T05:53:51.036Z,3.90
2019-05-05T05:56:28.538Z,4.00
2019-05-05T05:59:06.025Z,4.10
2019-05-05T06:01:43.756Z,4.20
2019-05-05T06:04:20.993Z,4.20
2019-05-05T06:06:58.502Z,4.30
2019-05-05T06:09:35.983Z,4.30
2019-05-05T06:12:14.251Z,4.40
2019-05-05T06:14:50.979Z,4.50
2019-05-05T06:17:28.497Z,4.50
2019-05-05T06:20:06.629Z,4.60
2019-05-05T06:22:44.662Z,4.70
2019-05-05T06:25:21.642Z,4.80
2019-05-05T06:27:59.149Z,4.90
2019-05-05T06:30:36.639Z,5.00
2019-05-05T06:33:14.141Z,5.10
2019-05-05T06:35:53.405Z,5.20
2019-05-05T06:38:29.183Z,5.20
2019-05-05T06:41:25.322Z,5.30
2019-05-05T06:44:17.361Z,5.30
2019-05-05T06:46:59.578Z,5.40
2019-05-05T06:49:37.059Z,5.50
2019-05-05T06:52:14.626Z,5.70
2019-05-05T06:54:54.154Z,5.80
2019-05-05T06:57:29.634Z,5.80
2019-05-05T07:00:07.346Z,5.90
2019-05-05T07:02:44.793Z,5.90
2019-05-05T07:05:23.517Z,5.90
2019-05-05T07:08:04.377Z,6.10
2019-05-05T07:10:40.650Z,6.20
2019-05-05T07:13:18.252Z,6.30
2019-05-05T07:15:55.739Z,6.30
2019-05-05T07:18:34.113Z,6.50
2019-05-05T07:21:11.566Z,6.60
2019-05-05T07:23:49.172Z,6.60
2019-05-05T07:26:26.679Z,6.80
2019-05-05T07:29:04.634Z,6.80
2019-05-05T07:31:43.704Z,6.90
2019-05-05T07:34:19.236Z,7.00
2019-05-05T07:36:57.413Z,7.10
2019-05-05T07:39:34.936Z,7.10
2019-05-05T07:42:13.732Z,7.20
2019-05-05T07:44:50.016Z,7.30
2019-05-05T07:47:27.535Z,7.40
2019-05-05T07:50:05.109Z,7.50
2019-05-05T07:52:43.876Z,7.60
2019-05-05T07:55:20.135Z,7.70
2019-05-05T07:57:57.702Z,7.90
2019-05-05T08:00:35.218Z,8.10
2019-05-05T08:03:14.362Z,8.50
2019-05-05T08:05:50.225Z,8.80
2019-05-05T08:08:27.745Z,9.20
2019-05-05T08:11:05.279Z,9.70
2019-05-05T08:13:44.329Z,10.10
2019-05-05T08:16:29.514Z,10.10
2019-05-05T08:19:35.446Z,10.30
2019-05-05T08:22:14.136Z,10.60
2019-05-05T08:24:59.600Z,10.90
2019-05-05T08:27:53.570Z,11.20
2019-05-05T08:30:36.715Z,11.60
2019-05-05T08:33:14.232Z,11.70
2019-05-05T08:35:51.677Z,11.70
2019-05-05T08:38:29.213Z,11.70
2019-05-05T08:41:06.721Z,11.50
2019-05-05T08:43:44.209Z,11.30
2019-05-05T08:46:21.726Z,11.00
2019-05-05T08:48:59.357Z,10.70
2019-05-05T08:51:36.859Z,10.50
2019-05-05T08:54:14.469Z,10.40
2019-05-05T08:56:51.932Z,10.70
2019-05-05T08:59:29.405Z,10.90
2019-05-05T09:02:06.929Z,11.20
2019-05-05T09:04:44.762Z,11.50
2019-05-05T09:07:24.166Z,11.80
2019-05-05T09:09:59.387Z,12.40
2019-05-05T09:12:36.861Z,13.00
2019-05-05T09:15:14.613Z,13.50
2019-05-05T09:17:54.243Z,13.70
2019-05-05T09:20:29.622Z,13.70
2019-05-05T09:23:07.133Z,13.40
2019-05-05T09:26:01.007Z,13.10
2019-05-05T09:29:00.077Z,12.90
2019-05-05T09:31:37.599Z,12.60
2019-05-05T09:34:15.419Z,12.40
2019-05-05T09:36:54.420Z,12.30
2019-05-05T09:39:30.462Z,12.30
2019-05-05T09:42:08.013Z,12.60
2019-05-05T09:44:45.515Z,13.10
2019-05-05T09:47:23.987Z,13.50
2019-05-05T09:50:00.544Z,13.70
2019-05-05T09:52:38.043Z,13.80
2019-05-05T09:55:15.589Z,13.50
2019-05-05T09:57:53.997Z,13.40
2019-05-05T10:00:30.906Z,13.30
2019-05-05T10:03:08.470Z,13.10
2019-05-05T10:05:46.207Z,13.10
2019-05-05T10:08:23.775Z,12.80
2019-05-05T10:11:01.180Z,12.70
2019-05-05T10:13:39.074Z,12.80
2019-05-05T10:16:16.587Z,12.80
2019-05-05T10:18:54.250Z,12.70
2019-05-05T10:21:33.775Z,12.50
2019-05-05T10:24:31.121Z,12.50
2019-05-05T10:27:06.368Z,12.60
2019-05-05T10:29:44.240Z,12.90
2019-05-05T10:32:21.401Z,13.30
2019-05-05T10:35:04.514Z,13.80
2019-05-05T10:37:40.968Z,14.10
2019-05-05T10:40:19.208Z,14.40
2019-05-05T10:42:56.721Z,14.40
2019-05-05T10:45:34.221Z,14.10
2019-05-05T10:48:11.727Z,13.90
2019-05-05T10:50:49.273Z,14.00
2019-05-05T10:53:26.841Z,14.00
2019-05-05T10:56:04.552Z,13.90
2019-05-05T10:58:43.990Z,13.90
2019-05-05T11:01:19.435Z,14.20
2019-05-05T11:03:56.908Z,14.80
2019-05-05T11:06:34.417Z,15.40
2019-05-05T11:09:13.964Z,16.10
2019-05-05T11:11:49.740Z,16.60
2019-05-05T11:14:27.210Z,17.00
2019-05-05T11:17:04.703Z,17.00
2019-05-05T11:19:44.089Z,16.90
2019-05-05T11:22:19.715Z,16.90
2019-05-05T11:25:01.057Z,17.10
2019-05-05T11:27:34.692Z,18.30
2019-05-05T11:30:18.575Z,19.30
2019-05-05T11:33:14.922Z,19.00
2019-05-05T11:36:11.035Z,18.40
2019-05-05T11:38:48.547Z,18.00
2019-05-05T11:41:26.027Z,17.40
2019-05-05T11:44:04.082Z,17.50
2019-05-05T11:46:41.055Z,18.60
2019-05-05T11:49:18.566Z,20.70
2019-05-05T11:51:56.044Z,22.50
2019-05-05T11:54:33.657Z,24.30
2019-05-05T11:57:11.171Z,26.60
2019-05-05T11:59:48.724Z,28.00
2019-05-05T12:02:26.240Z,28.90
2019-05-05T12:05:04.553Z,27.40
2019-05-05T12:07:41.210Z,24.60
2019-05-05T12:10:37.322Z,22.00
2019-05-05T12:13:14.906Z,20.20
2019-05-05T12:15:57.586Z,18.80
2019-05-05T12:18:35.093Z,18.20
2019-05-05T12:21:13.963Z,18.50
2019-05-05T12:23:50.080Z,18.80
2019-05-05T12:26:46.220Z,20.30
2019-05-05T12:29:27.390Z,22.40
2019-05-05T12:32:04.895Z,24.70
2019-05-05T12:34:44.476Z,25.80
2019-05-05T12:37:19.909Z,26.30
2019-05-05T12:39:57.440Z,25.30
2019-05-05T12:42:34.960Z,23.00
2019-05-05T12:45:14.170Z,21.10
2019-05-05T12:48:20.031Z,19.60
2019-05-05T12:50:57.525Z,18.40
2019-05-05T12:53:35.009Z,17.60
2019-05-05T12:56:14.484Z,16.90
2019-05-05T12:58:50.000Z,16.40
2019-05-05T13:01:33.597Z,16.10
2019-05-05T13:04:13.968Z,15.80
2019-05-05T13:06:49.452Z,15.70
2019-05-05T13:09:26.955Z,15.80
2019-05-05T13:12:04.584Z,16.20
2019-05-05T13:14:43.879Z,16.20
2019-05-05T13:17:19.419Z,16.50
2019-05-05T13:20:03.928Z,17.00
2019-05-05T13:23:08.780Z,17.90
2019-05-05T13:26:08.186Z,18.90
2019-05-05T13:28:45.651Z,20.60
2019-05-05T13:31:23.148Z,21.60
2019-05-05T13:34:00.669Z,21.30
2019-05-05T13:36:38.161Z,20.00
2019-05-05T13:39:15.699Z,18.80
2019-05-05T13:41:53.960Z,18.20
2019-05-05T13:45:09.066Z,19.10
2019-05-05T13:47:46.558Z,21.50
2019-05-05T13:50:29.148Z,21.40
2019-05-05T13:53:06.625Z,20.60
2019-05-05T13:55:46.106Z,20.00
2019-05-05T13:58:21.620Z,19.50
2019-05-05T14:00:59.115Z,18.70
2019-05-05T14:03:36.577Z,18.10
2019-05-05T14:06:14.093Z,18.80
2019-05-05T14:08:51.549Z,19.40
2019-05-05T14:11:29.047Z,21.50
2019-05-05T14:14:06.538Z,22.20
2019-05-05T14:16:44.686Z,22.80
2019-05-05T14:19:21.539Z,25.80
2019-05-05T14:21:59.043Z,28.20
2019-05-05T14:24:44.424Z,28.50
2019-05-05T14:27:21.164Z,30.00
2019-05-05T14:30:17.309Z,31.80
2019-05-05T14:32:54.830Z,32.60
2019-05-05T14:35:37.718Z,33.90
2019-05-05T14:38:23.558Z,34.60
2019-05-05T14:41:00.449Z,34.90
2019-05-05T14:43:38.720Z,35.00
2019-05-05T14:46:17.127Z,35.40
2019-05-05T14:48:55.155Z,34.70
2019-05-05T14:51:34.185Z,31.60
2019-05-05T14:54:12.022Z,29.60
2019-05-05T14:56:50.322Z,29.00
2019-05-05T14:59:29.226Z,28.60
2019-05-05T15:02:07.548Z,28.50
2019-05-05T15:04:45.589Z,27.90
2019-05-05T15:07:47.827Z,27.70
2019-05-05T15:10:44.346Z,28.40
2019-05-05T15:13:24.140Z,28.20
2019-05-05T15:16:00.326Z,27.00
2019-05-05T15:18:38.400Z,25.00
2019-05-05T15:21:15.913Z,22.90
2019-05-05T15:23:54.040Z,21.30
2019-05-05T15:26:31.016Z,19.90
2019-05-05T15:29:08.614Z,18.70
2019-05-05T15:31:46.244Z,18.00
2019-05-05T15:34:24.152Z,17.40
2019-05-05T15:37:01.485Z,17.10
2019-05-05T15:39:38.990Z,17.10
2019-05-05T15:42:16.864Z,18.10
2019-05-05T15:44:54.494Z,19.30
2019-05-05T15:47:31.830Z,19.80
2019-05-05T15:50:09.838Z,20.20
2019-05-05T15:52:47.387Z,22.30
2019-05-05T15:55:24.917Z,23.00
2019-05-05T15:58:03.618Z,22.20
2019-05-05T16:00:40.244Z,21.80
2019-05-05T16:03:17.896Z,21.70
2019-05-05T16:05:55.453Z,21.10
2019-05-05T16:08:34.008Z,20.30
2019-05-05T16:11:10.686Z,20.90
2019-05-05T16:13:48.264Z,21.50
2019-05-05T16:16:47.478Z,20.70
2019-05-05T16:19:46.872Z,19.70
2019-05-05T16:22:46.006Z,18.80
2019-05-05T16:25:23.501Z,17.90
2019-05-05T16:28:01.078Z,17.10
2019-05-05T16:30:38.630Z,16.50
2019-05-05T16:33:16.119Z,16.10
2019-05-05T16:35:53.591Z,15.70
2019-05-05T16:38:31.232Z,15.40
2019-05-05T16:41:08.734Z,15.20
2019-05-05T16:43:46.283Z,15.10
2019-05-05T16:46:23.991Z,15.00
2019-05-05T16:49:03.441Z,15.00
2019-05-05T16:51:43.904Z,16.50
2019-05-05T16:54:36.649Z,19.20
2019-05-05T16:57:15.288Z,21.60
2019-05-05T16:59:53.566Z,23.70
2019-05-05T17:02:30.378Z,25.10
2019-05-05T17:05:07.886Z,24.70
2019-05-05T17:07:45.398Z,23.10
2019-05-05T17:10:24.420Z,21.20
2019-05-05T17:13:01.595Z,19.50
2019-05-05T17:16:00.917Z,18.20
2019-05-05T17:18:48.920Z,17.10
2019-05-05T17:21:45.163Z,16.10
2019-05-05T17:24:23.955Z,15.10
2019-05-05T17:27:00.297Z,14.50
2019-05-05T17:29:37.823Z,14.00
2019-05-05T17:32:15.380Z,13.70
2019-05-05T17:34:54.155Z,13.60
2019-05-05T17:37:30.415Z,13.80
2019-05-05T17:40:43.386Z,13.80
2019-05-05T17:43:27.921Z,13.60
2019-05-05T17:46:24.229Z,13.30
2019-05-05T17:49:29.243Z,13.10
2019-05-05T17:52:21.547Z,13.00
2019-05-05T17:55:01.051Z,13.10
2019-05-05T17:57:38.693Z,13.20
2019-05-05T18:00:16.320Z,13.60
2019-05-05T18:02:54.748Z,14.30
2019-05-05T18:05:50.635Z,15.20
2019-05-05T18:08:51.139Z,15.90
2019-05-05T18:11:50.296Z,16.10
2019-05-05T18:14:28.064Z,15.60
2019-05-05T18:17:05.631Z,15.00
2019-05-05T18:19:43.635Z,14.40
2019-05-05T18:22:21.187Z,13.80
2019-05-05T18:24:59.034Z,13.30
2019-05-05T18:27:36.708Z,13.00
2019-05-05T18:30:14.352Z,12.70
2019-05-05T18:32:53.446Z,12.40
2019-05-05T18:35:30.183Z,12.10
2019-05-05T18:38:07.997Z,11.90
2019-05-05T18:40:45.757Z,11.70
2019-05-05T18:43:45.233Z,11.50
2019-05-05T18:46:24.414Z,11.30
2019-05-05T18:49:00.433Z,11.10
2019-05-05T18:51:38.046Z,11.00
2019-05-05T18:54:15.562Z,10.80
2019-05-05T18:56:53.514Z,10.70
2019-05-05T18:59:30.561Z,10.60
2019-05-05T19:02:27.116Z,10.40
2019-05-05T19:05:14.588Z,10.30
2019-05-05T19:07:56.289Z,10.20
2019-05-05T19:10:33.788Z,10.00
2019-05-05T19:13:13.519Z,9.90
2019-05-05T19:15:48.730Z,9.90
2019-05-05T19:18:26.459Z,9.80
2019-05-05T19:21:18.554Z,9.70
2019-05-05T19:23:56.053Z,9.60
2019-05-05T19:26:33.794Z,9.50
2019-05-05T19:29:11.057Z,9.50
2019-05-05T19:31:48.595Z,9.40
2019-05-05T19:34:26.070Z,9.40
2019-05-05T19:37:04.004Z,9.30
2019-05-05T19:39:41.092Z,9.20
2019-05-05T19:42:18.597Z,9.10
2019-05-05T19:44:56.184Z,9.00
2019-05-05T19:47:34.115Z,8.90
2019-05-05T19:50:17.316Z,8.70
2019-05-05T19:52:54.092Z,8.60
2019-05-05T19:55:31.660Z,8.40
2019-05-05T19:58:09.156Z,8.30
2019-05-05T20:00:46.675Z,8.20
2019-05-05T20:03:24.462Z,8.00
2019-05-05T20:06:01.732Z,7.90
2019-05-05T20:08:41.310Z,7.80
2019-05-05T20:11:16.820Z,7.70
2019-05-05T20:14:06.651Z,7.60
2019-05-05T20:16:35.833Z,7.60
2019-05-05T20:19:16.866Z,7.50
2019-05-05T20:21:54.482Z,7.50
2019-05-05T20:24:33.738Z,7.40
2019-05-05T20:27:09.439Z,7.40
2019-05-05T20:29:46.957Z,7.30
2019-05-05T20:32:29.805Z,7.20
2019-05-05T20:35:18.933Z,7.10
2019-05-05T20:38:15.322Z,7.10
2019-05-05T20:41:18.185Z,7.00
2019-05-05T20:43:55.731Z,7.00
2019-05-05T20:46:34.308Z,7.10
2019-05-05T20:49:10.716Z,7.10
2019-05-05T20:51:48.211Z,7.20
2019-05-05T20:54:25.697Z,7.20
2019-05-05T20:57:04.324Z,7.20
2019-05-05T20:59:40.671Z,7.20
2019-05-05T21:02:18.215Z,7.20
2019-05-05T21:04:55.693Z,7.10
2019-05-05T21:07:34.632Z,7.10
2019-05-05T21:10:10.772Z,7.00
2019-05-05T21:12:48.306Z,7.10
2019-05-05T21:15:25.829Z,7.10
2019-05-05T21:18:04.948Z,7.20
2019-05-05T21:20:40.829Z,7.30
2019-05-05T21:23:25.403Z,7.30
2019-05-05T21:26:08.305Z,7.20
2019-05-05T21:28:45.799Z,7.20
2019-05-05T21:31:23.981Z,7.20
2019-05-05T21:34:00.878Z,7.30
2019-05-05T21:36:38.366Z,7.30
2019-05-05T21:39:15.969Z,7.20
2019-05-05T21:41:53.458Z,7.20
2019-05-05T21:44:30.958Z,7.20
2019-05-05T21:47:08.465Z,7.10
2019-05-05T21:49:45.938Z,7.10
2019-05-05T21:52:29.273Z,7.10
2019-05-05T21:55:24.524Z,7.00
2019-05-05T21:58:06.936Z,7.00
2019-05-05T22:01:04.484Z,7.10
2019-05-05T22:03:44.357Z,7.10
2019-05-05T22:06:20.628Z,7.20
2019-05-05T22:08:58.139Z,7.20
2019-05-05T22:11:35.622Z,7.30
2019-05-05T22:14:13.981Z,7.40
2019-05-05T22:16:50.629Z,7.50
2019-05-05T22:19:28.331Z,7.60
2019-05-05T22:22:07.015Z,7.70
2019-05-05T22:24:44.548Z,7.70
2019-05-05T22:27:23.761Z,7.80
2019-05-05T22:30:09.680Z,7.90
2019-05-05T22:32:37.034Z,7.90
2019-05-05T22:35:16.335Z,8.00
2019-05-05T22:37:52.040Z,8.00
2019-05-05T22:40:29.581Z,8.00
2019-05-05T22:43:07.100Z,8.00
2019-05-05T22:45:45.090Z,8.00
2019-05-05T22:48:23.939Z,8.00
2019-05-05T22:50:59.800Z,8.00
2019-05-05T22:53:37.309Z,8.00
2019-05-05T22:56:14.860Z,8.00
2019-05-05T22:58:54.582Z,8.00
2019-05-05T23:01:29.804Z,7.90
2019-05-05T23:04:26.004Z,7.90
2019-05-05T23:07:07.198Z,7.80
2019-05-05T23:09:44.714Z,7.80
2019-05-05T23:12:24.233Z,7.80
2019-05-05T23:14:59.731Z,7.80
2019-05-05T23:17:48.273Z,7.70
2019-05-05T23:20:58.840Z,7.70
2019-05-05T23:23:56.236Z,7.60
2019-05-05T23:26:35.942Z,7.60
2019-05-05T23:29:11.675Z,7.60
2019-05-05T23:31:49.155Z,7.60
2019-05-05T23:34:26.755Z,7.60
2019-05-05T23:37:04.388Z,7.60
2019-05-05T23:39:41.933Z,7.60
2019-05-05T23:42:19.432Z,7.60
2019-05-05T23:44:56.931Z,7.60
2019-05-05T23:47:34.617Z,7.70
2019-05-05T23:50:13.448Z,7.70
2019-05-05T23:52:49.461Z,7.80
2019-05-05T23:55:26.959Z,7.80
2019-05-05T23:58:04.461Z,7.90
